Hauptseite
METAR-TAF:

METAR-TAF

Flughäfen :

Flughafen Alderney

Alderney,

Breite: 49-43N, Länge: 002-12W, Höhe: 71 m

METAR: fehlend

Zeit: 04:35 (03:35 UTC)

Prognose

Neuester Wetterbericht von vor 13 Stunden und 40 Minuten, um 13:55 UTC
Gültige Prognose vom 05 um 15 UTC bis 06 um 00 UTC
Wind 16 kt aus West
Sichtweite 10 km oder mehr
Leicht bewölkt in der Höhe von 1400 ft
Aufgelockert bewölkt in der Höhe von 3000 ft
Wahrscheinlichkeit 30% :
Zeitweise
vom 05 um 15 UTC bis 06 um 00 UTC
Sichtweite: 8000 m
Durchbrochene Bewölkung in der Höhe von 1400 ft
Regenschauer

TAF: EGJA 051355Z 0515/0600 28016KT 9999 FEW014 SCT030 PROB30 TEMPO 0515/0600 8000 -SHRA BKN014

Wetterbeobachtungen und Prognosen von mehr als 4000 Flughäfen (METAR und TAF Bericht).

Die verfügbaren Stationen werden durch gelbe und rote Markierungen auf der Karte dargestellt.

Führen Sie die Maus auf sie, um den Namen der Station zu sehen.

Darauf klicken, um die Beobachtung von Wetterbeobachtungen und Prognosen zu sehen.

Um die Karte zu ändern : klicken Sie auf den grünen Tasten mit einem schwarzen Kreuz Zum Vergrößern, auf den grünen Button mit einem Gedankenstrich zu verkleinern, oder auf die grünen Pfeile für benachbarte Karten.


METAR-TAF: